createdAt,value
2017-10-28T00:01:11.909Z,9.09
2017-10-28T00:02:24.508Z,9.19
2017-10-28T00:03:36.800Z,9.12
2017-10-28T00:04:49.407Z,9.13
2017-10-28T00:06:02.019Z,9.15
2017-10-28T00:07:14.295Z,9.11
2017-10-28T00:08:26.907Z,9.15
2017-10-28T00:09:39.486Z,9.16
2017-10-28T00:10:51.774Z,9.15
2017-10-28T00:12:04.047Z,9.13
2017-10-28T00:13:16.671Z,9.18
2017-10-28T00:14:28.642Z,9.22
2017-10-28T00:15:41.540Z,9.16
2017-10-28T00:16:53.509Z,9.24
2017-10-28T00:18:05.486Z,9.19
2017-10-28T00:19:18.096Z,9.24
2017-10-28T00:20:30.701Z,9.27
2017-10-28T00:21:43.320Z,9.26
2017-10-28T00:22:55.291Z,9.29
2017-10-28T00:24:07.290Z,9.26
2017-10-28T00:25:19.882Z,9.33
2017-10-28T00:26:32.183Z,9.34
2017-10-28T00:27:44.848Z,9.42
2017-10-28T00:28:57.170Z,9.39
2017-10-28T00:30:09.782Z,9.42
2017-10-28T00:31:21.732Z,9.37
2017-10-28T00:32:34.003Z,9.36
2017-10-28T00:33:45.977Z,9.36
2017-10-28T00:34:58.286Z,9.34
2017-10-28T00:36:10.543Z,9.31
2017-10-28T00:37:23.139Z,9.37
2017-10-28T00:38:35.423Z,9.36
2017-10-28T00:39:48.019Z,9.45
2017-10-28T00:41:00.603Z,9.36
2017-10-28T00:42:12.592Z,9.44
2017-10-28T00:43:25.209Z,9.42
2017-10-28T00:44:37.509Z,9.45
2017-10-28T00:45:50.107Z,9.45
2017-10-28T00:47:02.399Z,9.4
2017-10-28T00:48:15.316Z,9.44
2017-10-28T00:49:27.619Z,9.44
2017-10-28T00:50:40.225Z,9.51
2017-10-28T00:51:52.837Z,9.51
2017-10-28T00:53:05.126Z,9.48
2017-10-28T00:54:17.400Z,9.45
2017-10-28T00:55:30.028Z,9.45
2017-10-28T00:56:42.611Z,9.47
2017-10-28T00:57:54.917Z,9.47
2017-10-28T00:59:07.227Z,9.47
2017-10-28T01:00:19.849Z,9.47
2017-10-28T01:01:32.155Z,9.47
2017-10-28T01:02:44.423Z,9.49
2017-10-28T01:03:57.036Z,9.48
2017-10-28T01:05:09.639Z,9.48
2017-10-28T01:06:22.277Z,9.48
2017-10-28T01:07:34.579Z,9.48
2017-10-28T01:08:47.192Z,9.48
2017-10-28T01:10:00.114Z,9.47
2017-10-28T01:11:12.759Z,9.59
2017-10-28T01:12:24.736Z,9.56
2017-10-28T01:13:36.732Z,9.51
2017-10-28T01:14:49.433Z,9.56
2017-10-28T01:16:02.003Z,9.51
2017-10-28T01:17:13.967Z,9.56
2017-10-28T01:18:26.254Z,9.58
2017-10-28T01:19:38.837Z,9.62
2017-10-28T01:20:51.121Z,9.55
2017-10-28T01:22:03.378Z,9.59
2017-10-28T01:23:15.991Z,9.64
2017-10-28T01:24:28.608Z,9.64
2017-10-28T01:25:40.568Z,9.64
2017-10-28T01:26:53.161Z,9.54
2017-10-28T01:28:05.788Z,9.58
2017-10-28T01:29:18.382Z,9.66
2017-10-28T01:30:30.987Z,9.62
2017-10-28T01:31:43.566Z,9.62
2017-10-28T01:32:56.188Z,9.67
2017-10-28T01:34:08.801Z,9.64
2017-10-28T01:35:20.769Z,9.66
2017-10-28T01:36:33.375Z,9.67
2017-10-28T01:37:45.347Z,9.62
2017-10-28T01:38:57.984Z,9.67
2017-10-28T01:40:10.562Z,9.77
2017-10-28T01:41:22.503Z,9.7
2017-10-28T01:42:35.093Z,9.7
2017-10-28T01:43:47.697Z,9.7
2017-10-28T01:45:00.325Z,9.69
2017-10-28T01:46:12.617Z,9.73
2017-10-28T01:47:24.262Z,9.7
2017-10-28T01:48:36.882Z,9.76
2017-10-28T01:49:49.169Z,9.69
2017-10-28T01:51:01.776Z,9.59
2017-10-28T01:52:14.068Z,9.62
2017-10-28T01:53:26.688Z,9.56
2017-10-28T01:54:39.306Z,9.54
2017-10-28T01:55:51.897Z,9.54
2017-10-28T01:57:03.881Z,9.47
2017-10-28T01:58:16.497Z,9.42
2017-10-28T01:59:29.095Z,9.47
2017-10-28T02:00:41.711Z,9.44
2017-10-28T02:01:53.984Z,9.45
2017-10-28T02:03:06.604Z,9.34
2017-10-28T02:04:19.217Z,9.31
2017-10-28T02:05:31.538Z,9.29
2017-10-28T02:06:44.187Z,9.33
2017-10-28T02:07:56.760Z,9.29
2017-10-28T02:09:09.054Z,9.29
2017-10-28T02:10:21.328Z,9.36
2017-10-28T02:11:33.595Z,9.24
2017-10-28T02:12:46.236Z,9.31
2017-10-28T02:13:58.839Z,9.31
2017-10-28T02:15:11.761Z,9.3
2017-10-28T02:16:24.399Z,9.31
2017-10-28T02:17:36.997Z,9.37
2017-10-28T02:18:49.261Z,9.34
2017-10-28T02:20:01.882Z,9.36
2017-10-28T02:21:13.868Z,9.31
2017-10-28T02:22:26.131Z,9.33
2017-10-28T02:23:38.426Z,9.37
2017-10-28T02:24:50.749Z,9.37
2017-10-28T02:26:03.347Z,9.31
2017-10-28T02:27:14.989Z,9.4
2017-10-28T02:28:27.275Z,9.31
2017-10-28T02:29:39.530Z,9.4
2017-10-28T02:30:52.105Z,9.3
2017-10-28T02:32:04.399Z,9.39
2017-10-28T02:33:17.024Z,9.37
2017-10-28T02:34:29.647Z,9.3
2017-10-28T02:35:41.937Z,9.33
2017-10-28T02:36:54.556Z,9.39
2017-10-28T02:38:06.851Z,9.36
2017-10-28T02:39:19.146Z,9.37
2017-10-28T02:40:31.766Z,9.31
2017-10-28T02:41:44.379Z,9.31
2017-10-28T02:42:56.986Z,9.31
2017-10-28T02:44:09.599Z,9.33
2017-10-28T02:45:22.233Z,9.29
2017-10-28T02:46:34.539Z,9.24
2017-10-28T02:47:47.090Z,9.36
2017-10-28T02:48:59.687Z,9.31
2017-10-28T02:50:12.309Z,9.33
2017-10-28T02:51:24.925Z,9.33
2017-10-28T02:52:37.566Z,9.27
2017-10-28T02:53:50.185Z,9.27
2017-10-28T02:55:02.209Z,9.33
2017-10-28T02:56:14.513Z,9.34
2017-10-28T02:57:26.779Z,9.36
2017-10-28T02:58:38.985Z,9.27
2017-10-28T02:59:51.601Z,9.33
2017-10-28T03:01:04.215Z,9.33
2017-10-28T03:02:16.541Z,9.29
2017-10-28T03:03:29.137Z,9.3
2017-10-28T03:04:41.433Z,9.34
2017-10-28T03:05:54.042Z,9.29
2017-10-28T03:07:06.325Z,9.31
2017-10-28T03:08:18.893Z,9.29
2017-10-28T03:09:31.186Z,9.33
2017-10-28T03:10:43.477Z,9.29
2017-10-28T03:11:55.781Z,9.26
2017-10-28T03:13:08.380Z,9.16
2017-10-28T03:14:21.011Z,9.22
2017-10-28T03:15:33.595Z,9.15
2017-10-28T03:16:46.202Z,9.16
2017-10-28T03:17:58.500Z,9.12
2017-10-28T03:19:10.504Z,9.18
2017-10-28T03:20:23.150Z,9.21
2017-10-28T03:21:35.121Z,9.13
2017-10-28T03:22:47.421Z,9.13
2017-10-28T03:23:59.719Z,9.13
2017-10-28T03:25:12.347Z,9.08
2017-10-28T03:26:24.294Z,9.02
2017-10-28T03:27:36.891Z,8.99
2017-10-28T03:28:49.193Z,9
2017-10-28T03:30:01.140Z,9
2017-10-28T03:31:13.704Z,8.95
2017-10-28T03:32:26.308Z,9
2017-10-28T03:33:38.603Z,8.99
2017-10-28T03:34:50.898Z,8.96
2017-10-28T03:36:02.869Z,8.93
2017-10-28T03:37:15.483Z,8.95
2017-10-28T03:38:28.075Z,8.97
2017-10-28T03:39:40.356Z,8.92
2017-10-28T03:40:52.995Z,8.95
2017-10-28T03:42:05.270Z,8.87
2017-10-28T03:43:17.888Z,8.87
2017-10-28T03:44:30.175Z,8.9
2017-10-28T03:45:42.785Z,8.87
2017-10-28T03:46:55.086Z,8.84
2017-10-28T03:48:07.679Z,8.84
2017-10-28T03:49:19.622Z,8.89
2017-10-28T03:50:32.255Z,8.87
2017-10-28T03:51:44.834Z,8.84
2017-10-28T03:52:57.437Z,8.82
2017-10-28T03:54:10.029Z,9
2017-10-28T03:55:22.641Z,8.89
2017-10-28T03:56:34.944Z,8.9
2017-10-28T03:57:47.546Z,8.89
2017-10-28T03:58:59.808Z,8.92
2017-10-28T04:00:12.438Z,8.89
2017-10-28T04:01:25.053Z,8.89
2017-10-28T04:02:36.698Z,8.84
2017-10-28T04:03:49.611Z,8.89
2017-10-28T04:05:01.889Z,8.89
2017-10-28T04:06:14.487Z,8.93
2017-10-28T04:07:27.109Z,8.92
2017-10-28T04:08:39.722Z,8.86
2017-10-28T04:09:52.018Z,8.89
2017-10-28T04:11:04.670Z,8.79
2017-10-28T04:12:16.937Z,8.87
2017-10-28T04:13:29.555Z,8.92
2017-10-28T04:14:41.818Z,8.89
2017-10-28T04:15:54.096Z,8.87
2017-10-28T04:17:06.716Z,8.92
2017-10-28T04:18:19.320Z,8.86
2017-10-28T04:19:31.934Z,8.95
2017-10-28T04:20:44.210Z,8.89
2017-10-28T04:21:56.528Z,8.81
2017-10-28T04:23:09.166Z,8.89
2017-10-28T04:24:21.787Z,8.89
2017-10-28T04:25:34.639Z,8.95
2017-10-28T04:26:46.925Z,8.84
2017-10-28T04:27:59.549Z,8.95
2017-10-28T04:29:12.155Z,8.87
2017-10-28T04:30:24.448Z,8.9
2017-10-28T04:31:37.069Z,8.95
2017-10-28T04:32:49.359Z,8.82
2017-10-28T04:34:01.981Z,8.97
2017-10-28T04:35:14.320Z,8.82
2017-10-28T04:36:27.193Z,8.95
2017-10-28T04:37:39.492Z,8.82
2017-10-28T04:38:51.785Z,8.92
2017-10-28T04:40:04.088Z,8.9
2017-10-28T04:41:16.381Z,8.9
2017-10-28T04:42:28.996Z,8.92
2017-10-28T04:43:41.297Z,8.89
2017-10-28T04:44:53.594Z,8.84
2017-10-28T04:46:06.218Z,8.79
2017-10-28T04:47:18.507Z,8.87
2017-10-28T04:48:31.128Z,8.75
2017-10-28T04:49:43.424Z,8.86
2017-10-28T04:50:56.048Z,8.77
2017-10-28T04:52:08.338Z,8.92
2017-10-28T04:53:20.941Z,8.95
2017-10-28T04:54:33.261Z,8.89
2017-10-28T04:55:45.881Z,8.95
2017-10-28T04:56:58.494Z,8.78
2017-10-28T04:58:11.116Z,8.78
2017-10-28T04:59:23.386Z,8.75
2017-10-28T05:00:36.035Z,8.95
2017-10-28T05:01:48.327Z,8.9
2017-10-28T05:03:00.969Z,8.9
2017-10-28T05:04:13.576Z,8.93
2017-10-28T05:05:26.189Z,8.84
2017-10-28T05:06:38.486Z,8.9
2017-10-28T05:07:51.114Z,8.92
2017-10-28T05:09:04.010Z,8.92
2017-10-28T05:10:16.618Z,8.93
2017-10-28T05:11:28.912Z,8.82
2017-10-28T05:12:40.896Z,8.87
2017-10-28T05:13:53.508Z,8.84
2017-10-28T05:15:05.179Z,8.84
2017-10-28T05:16:17.796Z,8.87
2017-10-28T05:17:30.076Z,8.87
2017-10-28T05:18:42.671Z,8.92
2017-10-28T05:19:54.944Z,8.97
2017-10-28T05:21:07.242Z,8.93
2017-10-28T05:22:19.876Z,8.92
2017-10-28T05:23:32.478Z,8.99
2017-10-28T05:24:45.099Z,8.9
2017-10-28T05:25:57.064Z,8.99
2017-10-28T05:27:09.670Z,8.96
2017-10-28T05:28:22.259Z,8.92
2017-10-28T05:29:34.533Z,8.95
2017-10-28T05:30:46.836Z,8.95
2017-10-28T05:31:59.423Z,8.96
2017-10-28T05:33:11.717Z,9.02
2017-10-28T05:34:24.031Z,9.02
2017-10-28T05:35:36.658Z,9.03
2017-10-28T05:36:48.860Z,8.96
2017-10-28T05:38:01.121Z,8.96
2017-10-28T05:39:13.414Z,8.97
2017-10-28T05:40:26.043Z,8.96
2017-10-28T05:41:38.914Z,8.97
2017-10-28T05:42:51.200Z,9.02
2017-10-28T05:44:03.160Z,9.02
2017-10-28T05:45:15.766Z,8.96
2017-10-28T05:46:27.727Z,8.95
2017-10-28T05:47:40.345Z,9.09
2017-10-28T05:48:52.954Z,9.09
2017-10-28T05:50:05.215Z,8.99
2017-10-28T05:51:17.503Z,8.99
2017-10-28T05:52:30.118Z,9.02
2017-10-28T05:53:42.424Z,8.99
2017-10-28T05:54:55.017Z,9.09
2017-10-28T05:56:07.641Z,9.03
2017-10-28T05:57:20.261Z,9.03
2017-10-28T05:58:32.527Z,8.99
2017-10-28T05:59:44.843Z,9.08
2017-10-28T06:00:57.438Z,8.99
2017-10-28T06:02:10.041Z,9.08
2017-10-28T06:03:22.258Z,8.97
2017-10-28T06:04:34.871Z,9.03
2017-10-28T06:05:47.478Z,8.99
2017-10-28T06:06:59.746Z,8.99
2017-10-28T06:08:12.370Z,9
2017-10-28T06:09:24.990Z,8.99
2017-10-28T06:10:36.957Z,9.02
2017-10-28T06:11:48.929Z,9
2017-10-28T06:13:01.204Z,8.97
2017-10-28T06:14:13.794Z,8.95
2017-10-28T06:15:26.110Z,8.96
2017-10-28T06:16:38.731Z,9.05
2017-10-28T06:17:50.684Z,9.02
2017-10-28T06:19:03.294Z,8.96
2017-10-28T06:20:15.579Z,9
2017-10-28T06:21:28.196Z,8.97
2017-10-28T06:22:40.818Z,9
2017-10-28T06:23:53.109Z,8.96
2017-10-28T06:25:05.998Z,9.02
2017-10-28T06:26:18.586Z,8.97
2017-10-28T06:27:31.214Z,9.03
2017-10-28T06:28:43.818Z,9.02
2017-10-28T06:29:56.116Z,9.08
2017-10-28T06:31:08.087Z,8.96
2017-10-28T06:32:20.372Z,9.05
2017-10-28T06:33:32.950Z,9.03
2017-10-28T06:34:45.580Z,9.03
2017-10-28T06:35:58.197Z,9.09
2017-10-28T06:37:10.803Z,9.11
2017-10-28T06:38:23.432Z,9.05
2017-10-28T06:39:35.735Z,9.18
2017-10-28T06:40:48.043Z,9.12
2017-10-28T06:42:00.345Z,9.09
2017-10-28T06:43:12.294Z,9.13
2017-10-28T06:44:24.577Z,9.18
2017-10-28T06:45:37.184Z,9.05
2017-10-28T06:46:49.780Z,9.19
2017-10-28T06:48:02.075Z,9.18
2017-10-28T06:49:14.065Z,9.13
2017-10-28T06:50:26.690Z,9.19
2017-10-28T06:51:39.300Z,9.15
2017-10-28T06:52:51.579Z,9.16
2017-10-28T06:54:04.180Z,9.22
2017-10-28T06:55:16.476Z,9.19
2017-10-28T06:56:28.768Z,9.24
2017-10-28T06:57:40.766Z,9.3
2017-10-28T06:58:53.383Z,9.24
2017-10-28T07:00:05.675Z,9.36
2017-10-28T07:01:18.303Z,9.31
2017-10-28T07:02:30.924Z,9.33
2017-10-28T07:03:43.201Z,9.33
2017-10-28T07:04:55.814Z,9.39
2017-10-28T07:06:08.425Z,9.29
2017-10-28T07:07:21.054Z,9.37
2017-10-28T07:08:33.697Z,9.34
2017-10-28T07:09:45.990Z,9.39
2017-10-28T07:10:58.292Z,9.34
2017-10-28T07:12:10.580Z,9.34
2017-10-28T07:13:23.201Z,9.36
2017-10-28T07:14:34.808Z,9.34
2017-10-28T07:15:47.049Z,9.34
2017-10-28T07:16:59.339Z,9.31
2017-10-28T07:18:11.945Z,9.34
2017-10-28T07:19:23.856Z,9.31
2017-10-28T07:20:36.465Z,9.3
2017-10-28T07:21:48.427Z,9.34
2017-10-28T07:23:00.703Z,9.31
2017-10-28T07:24:13.312Z,9.36
2017-10-28T07:25:25.321Z,9.33
2017-10-28T07:26:37.891Z,9.44
2017-10-28T07:27:50.507Z,9.44
2017-10-28T07:29:02.816Z,9.42
2017-10-28T07:30:15.112Z,9.48
2017-10-28T07:31:27.408Z,9.4
2017-10-28T07:32:40.012Z,9.47
2017-10-28T07:33:51.978Z,9.51
2017-10-28T07:35:04.573Z,9.49
2017-10-28T07:36:17.205Z,9.47
2017-10-28T07:37:29.814Z,9.52
2017-10-28T07:38:42.431Z,9.48
2017-10-28T07:39:55.060Z,9.54
2017-10-28T07:41:07.326Z,9.58
2017-10-28T07:42:19.644Z,9.54
2017-10-28T07:43:32.250Z,9.56
2017-10-28T07:44:44.889Z,9.64
2017-10-28T07:45:57.510Z,9.67
2017-10-28T07:47:09.809Z,9.74
2017-10-28T07:48:22.412Z,9.72
2017-10-28T07:49:34.707Z,9.74
2017-10-28T07:50:47.324Z,9.8
2017-10-28T07:51:59.933Z,9.72
2017-10-28T07:53:12.210Z,9.74
2017-10-28T07:54:24.858Z,9.8
2017-10-28T07:55:37.156Z,9.76
2017-10-28T07:56:49.457Z,9.87
2017-10-28T07:58:02.070Z,9.76
2017-10-28T07:59:14.669Z,9.8
2017-10-28T08:00:27.265Z,9.84
2017-10-28T08:01:39.583Z,9.8
2017-10-28T08:02:52.449Z,9.84
2017-10-28T08:04:04.765Z,9.95
2017-10-28T08:05:17.040Z,9.9
2017-10-28T08:06:29.663Z,9.92
2017-10-28T08:07:41.635Z,9.92
2017-10-28T08:08:54.256Z,9.91
2017-10-28T08:10:06.905Z,9.91
2017-10-28T08:11:19.202Z,9.95
2017-10-28T08:12:31.822Z,9.95
2017-10-28T08:13:44.440Z,9.88
2017-10-28T08:14:56.713Z,9.9
2017-10-28T08:16:08.710Z,9.92
2017-10-28T08:17:20.983Z,9.94
2017-10-28T08:18:33.572Z,9.92
2017-10-28T08:19:45.895Z,9.92
2017-10-28T08:20:57.855Z,9.87
2017-10-28T08:22:10.463Z,9.91
2017-10-28T08:23:22.746Z,9.91
2017-10-28T08:24:35.354Z,9.92
2017-10-28T08:25:47.948Z,9.77
2017-10-28T08:26:59.924Z,9.91
2017-10-28T08:28:12.230Z,9.85
2017-10-28T08:29:24.835Z,9.85
2017-10-28T08:30:37.143Z,9.88
2017-10-28T08:31:49.747Z,9.91
2017-10-28T08:33:02.017Z,9.85
2017-10-28T08:34:13.999Z,9.81
2017-10-28T08:35:26.605Z,9.82
2017-10-28T08:36:38.861Z,9.82
2017-10-28T08:37:51.180Z,9.84
2017-10-28T08:39:03.796Z,9.84
2017-10-28T08:40:16.072Z,9.9
2017-10-28T08:41:28.697Z,9.95
2017-10-28T08:42:41.312Z,9.9
2017-10-28T08:43:53.904Z,9.9
2017-10-28T08:45:06.495Z,9.95
2017-10-28T08:46:19.140Z,10
2017-10-28T08:47:31.408Z,9.92
2017-10-28T08:48:43.707Z,9.99
2017-10-28T08:49:55.974Z,10.13
2017-10-28T08:51:08.280Z,9.99
2017-10-28T08:52:20.884Z,10.1
2017-10-28T08:53:33.186Z,10.15
2017-10-28T08:54:45.470Z,10.1
2017-10-28T08:55:58.061Z,10.1
2017-10-28T08:57:10.706Z,10.12
2017-10-28T08:58:23.341Z,10.09
2017-10-28T08:59:34.997Z,10.18
2017-10-28T09:00:47.317Z,10.18
2017-10-28T09:01:59.910Z,10.18
2017-10-28T09:03:12.512Z,10.13
2017-10-28T09:04:24.780Z,10.21
2017-10-28T09:05:36.764Z,10.12
2017-10-28T09:06:48.750Z,10.23
2017-10-28T09:08:01.362Z,10.09
2017-10-28T09:09:13.944Z,10.12
2017-10-28T09:10:26.567Z,10.23
2017-10-28T09:11:38.871Z,10.18
2017-10-28T09:12:51.145Z,10.13
2017-10-28T09:14:03.424Z,10.09
2017-10-28T09:15:15.719Z,10.18
2017-10-28T09:16:28.338Z,10.18
2017-10-28T09:17:40.957Z,10.09
2017-10-28T09:18:53.802Z,10.2
2017-10-28T09:20:06.426Z,10.21
2017-10-28T09:21:18.698Z,10.21
2017-10-28T09:22:31.343Z,10.25
2017-10-28T09:23:43.960Z,10.27
2017-10-28T09:24:56.234Z,10.33
2017-10-28T09:26:07.569Z,10.33
2017-10-28T09:27:20.169Z,10.34
2017-10-28T09:28:32.788Z,10.41
2017-10-28T09:29:45.390Z,10.42
2017-10-28T09:30:57.979Z,10.46
2017-10-28T09:32:10.272Z,10.48
2017-10-28T09:33:22.884Z,10.51
2017-10-28T09:34:35.498Z,10.51
2017-10-28T09:35:48.111Z,10.53
2017-10-28T09:37:00.754Z,10.57
2017-10-28T09:38:13.028Z,10.64
2017-10-28T09:39:24.696Z,10.67
2017-10-28T09:40:37.321Z,10.72
2017-10-28T09:41:49.923Z,10.68
2017-10-28T09:43:02.536Z,10.62
2017-10-28T09:44:15.116Z,10.69
2017-10-28T09:45:27.082Z,10.65
2017-10-28T09:46:39.677Z,10.67
2017-10-28T09:47:52.302Z,10.64
2017-10-28T09:49:04.922Z,10.79
2017-10-28T09:50:17.550Z,10.75
2017-10-28T09:51:29.514Z,10.79
2017-10-28T09:52:42.136Z,10.87
2017-10-28T09:53:54.432Z,10.82
2017-10-28T09:55:07.042Z,10.82
2017-10-28T09:56:19.671Z,10.79
2017-10-28T09:57:31.967Z,10.79
2017-10-28T09:58:44.251Z,10.83
2017-10-28T09:59:56.504Z,10.8
2017-10-28T10:01:08.833Z,10.86
2017-10-28T10:02:21.116Z,10.83
2017-10-28T10:03:33.770Z,10.84
2017-10-28T10:04:46.404Z,10.82
2017-10-28T10:05:59.028Z,10.84
2017-10-28T10:07:11.663Z,10.8
2017-10-28T10:08:24.266Z,10.84
2017-10-28T10:09:36.236Z,10.77
2017-10-28T10:10:48.844Z,10.82
2017-10-28T10:12:01.457Z,10.72
2017-10-28T10:13:14.082Z,10.77
2017-10-28T10:14:26.403Z,10.75
2017-10-28T10:15:38.690Z,10.79
2017-10-28T10:16:50.972Z,10.77
2017-10-28T10:18:03.289Z,10.79
2017-10-28T10:19:15.590Z,10.68
2017-10-28T10:20:28.205Z,10.65
2017-10-28T10:21:40.183Z,10.62
2017-10-28T10:22:52.470Z,10.68
2017-10-28T10:24:04.784Z,10.76
2017-10-28T10:25:17.387Z,10.68
2017-10-28T10:26:29.690Z,10.68
2017-10-28T10:27:41.976Z,10.55
2017-10-28T10:28:54.592Z,10.62
2017-10-28T10:30:07.170Z,10.61
2017-10-28T10:31:19.499Z,10.71
2017-10-28T10:32:31.744Z,10.67
2017-10-28T10:33:44.337Z,10.67
2017-10-28T10:34:56.328Z,10.68
2017-10-28T10:36:08.640Z,10.62
2017-10-28T10:37:21.244Z,10.75
2017-10-28T10:38:33.862Z,10.76
2017-10-28T10:39:46.160Z,10.69
2017-10-28T10:40:58.789Z,10.72
2017-10-28T10:42:11.095Z,10.75
2017-10-28T10:43:23.690Z,10.8
2017-10-28T10:44:36.339Z,10.72
2017-10-28T10:45:48.917Z,10.83
2017-10-28T10:47:01.535Z,10.83
2017-10-28T10:48:14.169Z,10.8
2017-10-28T10:49:26.779Z,10.82
2017-10-28T10:50:39.076Z,10.87
2017-10-28T10:51:51.695Z,10.98
2017-10-28T10:53:04.290Z,10.97
2017-10-28T10:54:16.265Z,11
2017-10-28T10:55:28.860Z,11.07
2017-10-28T10:56:40.851Z,11.04
2017-10-28T10:57:53.447Z,11.02
2017-10-28T10:59:06.069Z,11.18
2017-10-28T11:00:18.389Z,11.15
2017-10-28T11:01:31.029Z,11.15
2017-10-28T11:02:43.644Z,11.16
2017-10-28T11:03:55.929Z,11.18
2017-10-28T11:05:08.519Z,11.22
2017-10-28T11:06:21.157Z,11.23
2017-10-28T11:07:32.812Z,11.22
2017-10-28T11:08:45.407Z,11.19
2017-10-28T11:09:58.055Z,11.2
2017-10-28T11:11:10.696Z,11.25
2017-10-28T11:12:23.317Z,11.31
2017-10-28T11:13:35.613Z,11.23
2017-10-28T11:14:47.906Z,11.23
2017-10-28T11:16:00.209Z,11.2
2017-10-28T11:17:12.518Z,11.19
2017-10-28T11:18:25.117Z,11.26
2017-10-28T11:19:37.433Z,11.18
2017-10-28T11:20:50.037Z,11.18
2017-10-28T11:22:02.637Z,11.25
2017-10-28T11:23:14.604Z,11.19
2017-10-28T11:24:27.227Z,11.23
2017-10-28T11:25:39.542Z,11.16
2017-10-28T11:26:51.194Z,11.16
2017-10-28T11:28:03.182Z,11.04
2017-10-28T11:29:16.182Z,11.08
2017-10-28T11:30:28.783Z,11.25
2017-10-28T11:31:41.066Z,11.13
2017-10-28T11:32:52.716Z,11.18
2017-10-28T11:34:05.315Z,11.13
2017-10-28T11:35:17.589Z,11.18
2017-10-28T11:36:30.239Z,11.15
2017-10-28T11:37:42.843Z,11.18
2017-10-28T11:38:55.152Z,11.15
2017-10-28T11:40:07.693Z,11.13
2017-10-28T11:41:20.292Z,11.15
2017-10-28T11:42:32.285Z,11.15
2017-10-28T11:43:44.908Z,11.08
2017-10-28T11:44:57.203Z,11.12
2017-10-28T11:46:09.479Z,11.1
2017-10-28T11:47:21.445Z,11.13
2017-10-28T11:48:34.042Z,11.15
2017-10-28T11:49:46.310Z,11.16
2017-10-28T11:50:58.578Z,11.15
2017-10-28T11:52:10.548Z,11.16
2017-10-28T11:53:23.174Z,11.23
2017-10-28T11:54:35.458Z,11.23
2017-10-28T11:55:47.415Z,11.22
2017-10-28T11:57:00.011Z,11.2
2017-10-28T11:58:12.621Z,11.23
2017-10-28T11:59:24.616Z,11.27
2017-10-28T12:00:37.240Z,11.35
2017-10-28T12:01:49.867Z,11.3
2017-10-28T12:03:02.487Z,11.26
2017-10-28T12:04:14.433Z,11.33
2017-10-28T12:05:27.069Z,11.3
2017-10-28T12:06:39.676Z,11.3
2017-10-28T12:07:51.946Z,11.27
2017-10-28T12:09:04.593Z,11.23
2017-10-28T12:10:17.213Z,11.27
2017-10-28T12:11:29.844Z,11.23
2017-10-28T12:12:42.492Z,11.18
2017-10-28T12:13:54.763Z,11.26
2017-10-28T12:15:07.371Z,11.25
2017-10-28T12:16:19.641Z,11.19
2017-10-28T12:17:31.933Z,11.19
2017-10-28T12:18:44.223Z,11.13
2017-10-28T12:19:56.220Z,11.25
2017-10-28T12:21:08.523Z,11.19
2017-10-28T12:22:20.867Z,11.16
2017-10-28T12:23:32.837Z,11.19
2017-10-28T12:24:45.483Z,11.22
2017-10-28T12:25:57.769Z,11.22
2017-10-28T12:27:10.407Z,11.26
2017-10-28T12:28:23.011Z,11.23
2017-10-28T12:29:35.646Z,11.3
2017-10-28T12:30:48.280Z,11.33
2017-10-28T12:32:00.576Z,11.38
2017-10-28T12:33:13.205Z,11.48
2017-10-28T12:34:25.805Z,11.48
2017-10-28T12:35:38.118Z,11.51
2017-10-28T12:36:50.715Z,11.53
2017-10-28T12:38:03.009Z,11.58
2017-10-28T12:39:15.634Z,11.56
2017-10-28T12:40:28.255Z,11.59
2017-10-28T12:41:40.549Z,11.7
2017-10-28T12:42:53.149Z,11.67
2017-10-28T12:44:05.434Z,11.63
2017-10-28T12:45:18.061Z,11.62
2017-10-28T12:46:30.673Z,11.7
2017-10-28T12:47:42.631Z,11.67
2017-10-28T12:48:55.224Z,11.67
2017-10-28T12:50:07.191Z,11.63
2017-10-28T12:51:19.490Z,11.67
2017-10-28T12:52:31.791Z,11.68
2017-10-28T12:53:44.079Z,11.67
2017-10-28T12:54:56.676Z,11.63
2017-10-28T12:56:08.944Z,11.6
2017-10-28T12:57:21.565Z,11.58
2017-10-28T12:58:34.184Z,11.55
2017-10-28T12:59:46.480Z,11.56
2017-10-28T13:00:58.773Z,11.58
2017-10-28T13:02:11.085Z,11.59
2017-10-28T13:03:23.417Z,11.6
2017-10-28T13:04:36.012Z,11.51
2017-10-28T13:05:48.627Z,11.45
2017-10-28T13:07:01.227Z,11.44
2017-10-28T13:08:13.828Z,11.45
2017-10-28T13:09:26.438Z,11.48
2017-10-28T13:10:38.719Z,11.4
2017-10-28T13:11:51.054Z,11.38
2017-10-28T13:13:03.333Z,11.37
2017-10-28T13:14:15.622Z,11.38
2017-10-28T13:15:27.948Z,11.37
2017-10-28T13:16:40.543Z,11.34
2017-10-28T13:17:53.420Z,11.27
2017-10-28T13:19:06.040Z,11.26
2017-10-28T13:20:18.684Z,11.23
2017-10-28T13:21:30.970Z,11.23
2017-10-28T13:22:43.598Z,11.25
2017-10-28T13:23:56.243Z,11.16
2017-10-28T13:25:08.191Z,11.16
2017-10-28T13:26:20.505Z,11.13
2017-10-28T13:27:33.123Z,11.05
2017-10-28T13:28:45.732Z,11.01
2017-10-28T13:29:58.372Z,11.01
2017-10-28T13:31:10.660Z,11.02
2017-10-28T13:32:23.263Z,10.97
2017-10-28T13:33:35.552Z,11.08
2017-10-28T13:34:48.158Z,10.9
2017-10-28T13:36:00.450Z,10.89
2017-10-28T13:37:12.724Z,10.86
2017-10-28T13:38:25.042Z,10.9
2017-10-28T13:39:37.640Z,11.02
2017-10-28T13:40:50.254Z,10.97
2017-10-28T13:42:01.925Z,10.83
2017-10-28T13:43:14.552Z,10.8
2017-10-28T13:44:26.849Z,10.79
2017-10-28T13:45:39.157Z,10.8
2017-10-28T13:46:51.471Z,10.83
2017-10-28T13:48:04.082Z,10.89
2017-10-28T13:49:16.356Z,10.82
2017-10-28T13:50:27.979Z,10.87
2017-10-28T13:51:40.585Z,10.87
2017-10-28T13:52:52.540Z,10.77
2017-10-28T13:54:05.134Z,10.82
2017-10-28T13:55:17.773Z,10.83
2017-10-28T13:56:29.747Z,10.79
2017-10-28T13:57:42.031Z,10.82
2017-10-28T13:58:54.635Z,10.76
2017-10-28T14:00:07.238Z,10.8
2017-10-28T14:01:19.841Z,10.75
2017-10-28T14:02:32.475Z,10.68
2017-10-28T14:03:44.757Z,10.76
2017-10-28T14:04:57.366Z,10.76
2017-10-28T14:06:09.669Z,10.76
2017-10-28T14:07:21.962Z,10.79
2017-10-28T14:08:34.612Z,10.79
2017-10-28T14:09:47.234Z,10.79
2017-10-28T14:10:59.890Z,10.79
2017-10-28T14:12:11.870Z,10.76
2017-10-28T14:13:24.139Z,10.72
2017-10-28T14:14:36.428Z,10.72
2017-10-28T14:15:48.710Z,10.71
2017-10-28T14:17:01.330Z,10.77
2017-10-28T14:18:13.633Z,10.77
2017-10-28T14:19:25.921Z,10.75
2017-10-28T14:20:38.547Z,10.76
2017-10-28T14:21:51.164Z,10.75
2017-10-28T14:23:03.434Z,10.77
2017-10-28T14:24:15.748Z,10.77
2017-10-28T14:25:28.041Z,10.77
2017-10-28T14:26:40.646Z,10.79
2017-10-28T14:27:52.935Z,10.77
2017-10-28T14:29:04.929Z,10.8
2017-10-28T14:30:17.553Z,10.71
2017-10-28T14:31:30.203Z,10.75
2017-10-28T14:32:42.828Z,10.76
2017-10-28T14:33:55.402Z,10.8
2017-10-28T14:35:08.015Z,10.8
2017-10-28T14:36:19.656Z,10.77
2017-10-28T14:37:31.957Z,10.8
2017-10-28T14:38:44.573Z,10.79
2017-10-28T14:39:56.850Z,10.71
2017-10-28T14:41:09.141Z,10.75
2017-10-28T14:42:21.438Z,10.77
2017-10-28T14:43:34.049Z,10.76
2017-10-28T14:44:46.348Z,10.8
2017-10-28T14:45:58.976Z,10.79
2017-10-28T14:47:10.940Z,10.72
2017-10-28T14:48:23.563Z,10.75
2017-10-28T14:49:36.229Z,10.72
2017-10-28T14:50:48.875Z,10.79
2017-10-28T14:52:01.495Z,10.79
2017-10-28T14:53:13.172Z,10.76
2017-10-28T14:54:25.793Z,10.69
2017-10-28T14:55:37.433Z,10.77
2017-10-28T14:56:49.738Z,10.75
2017-10-28T14:58:02.050Z,10.79
2017-10-28T14:59:14.366Z,10.72
2017-10-28T15:00:26.996Z,10.67
2017-10-28T15:01:39.336Z,10.69
2017-10-28T15:02:51.949Z,10.64
2017-10-28T15:04:04.586Z,10.65
2017-10-28T15:05:16.898Z,10.68
2017-10-28T15:06:29.755Z,10.65
2017-10-28T15:07:42.373Z,10.67
2017-10-28T15:08:54.342Z,10.65
2017-10-28T15:10:06.969Z,10.67
2017-10-28T15:11:18.906Z,10.61
2017-10-28T15:12:31.219Z,10.65
2017-10-28T15:13:43.501Z,10.72
2017-10-28T15:14:55.469Z,10.72
2017-10-28T15:16:07.738Z,10.65
2017-10-28T15:17:19.692Z,10.65
2017-10-28T15:18:32.275Z,10.67
2017-10-28T15:19:44.900Z,10.67
2017-10-28T15:20:57.538Z,10.59
2017-10-28T15:22:09.167Z,10.69
2017-10-28T15:23:21.816Z,10.62
2017-10-28T15:24:34.450Z,10.67
2017-10-28T15:25:47.049Z,10.65
2017-10-28T15:26:59.692Z,10.58
2017-10-28T15:28:11.620Z,10.68
2017-10-28T15:29:24.248Z,10.58
2017-10-28T15:30:36.892Z,10.49
2017-10-28T15:31:49.161Z,10.57
2017-10-28T15:33:01.452Z,10.57
2017-10-28T15:34:13.415Z,10.53
2017-10-28T15:35:26.022Z,10.46
2017-10-28T15:36:38.645Z,10.53
2017-10-28T15:37:50.943Z,10.48
2017-10-28T15:39:03.785Z,10.45
2017-10-28T15:40:16.386Z,10.57
2017-10-28T15:41:28.974Z,10.43
2017-10-28T15:42:41.242Z,10.43
2017-10-28T15:43:53.218Z,10.42
2017-10-28T15:45:05.508Z,10.49
2017-10-28T15:46:18.108Z,10.42
2017-10-28T15:47:30.741Z,10.57
2017-10-28T15:48:43.039Z,10.51
2017-10-28T15:49:55.641Z,10.48
2017-10-28T15:51:07.611Z,10.55
2017-10-28T15:52:19.887Z,10.59
2017-10-28T15:53:32.161Z,10.49